Time;durP1;ratioP1;P1;durP2;ratioP2;P2;SDS_P1;SDS_P2;PMS_P1;PMS_P2;Temp;Humidity;BMP_temperature;BMP_pressure;BME280_temperature;BME280_humidity;BME280_pressure;Samples;Min_cycle;Max_cycle;Signal;HPM_P1;HPM_P2
2021/11/07 00:00:52;;;;;;;9.45;8.38;;;10.00;99.90;;;;;;5020250;28;20042;-83
2021/11/07 00:05:59;;;;;;;12.13;10.07;;;9.90;99.90;;;;;;4992538;28;20030;-81
2021/11/07 00:11:08;;;;;;;12.63;11.43;;;9.90;99.90;;;;;;4988119;28;20682;-81
2021/11/07 00:13:35;;;;;;;9.80;8.80;;;9.90;99.90;;;;;;4999053;28;20042;-81
2021/11/07 00:16:09;;;;;;;10.52;9.40;;;9.90;99.90;;;;;;5011638;28;20500;-81
2021/11/07 00:18:44;;;;;;;11.75;10.57;;;9.90;99.90;;;;;;4977578;28;20041;-82
2021/11/07 00:21:16;;;;;;;10.23;9.23;;;10.00;99.90;;;;;;5004430;28;20529;-82
2021/11/07 00:26:29;;;;;;;11.65;10.50;;;9.90;99.90;;;;;;4989951;28;20038;-82
2021/11/07 00:29:17;;;;;;;11.05;10.05;;;9.90;99.90;;;;;;4979499;28;20386;-81
2021/11/07 00:37:34;;;;;;;10.25;9.20;;;9.90;99.90;;;;;;5002362;28;20057;-81
2021/11/07 00:48:40;;;;;;;9.18;8.27;;;9.90;99.90;;;;;;5018653;28;20052;-81
2021/11/07 00:51:03;;;;;;;15.57;14.00;;;9.90;99.90;;;;;;5011019;28;20042;-81
2021/11/07 00:56:10;;;;;;;11.40;10.40;;;9.90;99.90;;;;;;5041645;28;20044;-80
2021/11/07 00:59:02;;;;;;;11.68;10.55;;;9.90;99.90;;;;;;4999366;28;20042;-80
2021/11/07 01:02:54;;;;;;;12.68;11.57;;;9.90;99.90;;;;;;5017359;28;20503;-81
2021/11/07 01:05:42;;;;;;;15.63;14.13;;;9.90;99.90;;;;;;5001037;28;20126;-81
2021/11/07 01:08:17;;;;;;;12.88;11.65;;;9.90;99.90;;;;;;4965730;28;20126;-82
2021/11/07 01:10:49;;;;;;;15.10;13.70;;;9.90;99.90;;;;;;4961586;28;20380;-82
2021/11/07 01:17:39;;;;;;;;;;;;;;;;;;;;;
2021/11/07 01:25:06;;;;;;;14.77;13.25;;;10.00;99.90;;;;;;4928141;29;20055;-83
2021/11/07 01:27:41;;;;;;;14.13;12.85;;;10.00;99.90;;;;;;4914113;29;20744;-82
2021/11/07 01:42:38;;;;;;;20.80;18.65;;;10.10;99.90;;;;;;4858246;29;20668;-83
2021/11/07 01:49:43;;;;;;;22.27;18.48;;;10.10;99.90;;;;;;4977111;28;20042;-81
2021/11/07 01:52:22;;;;;;;23.02;19.70;;;10.10;99.90;;;;;;4987515;28;20064;-81
2021/11/07 01:54:52;;;;;;;21.30;18.33;;;10.10;99.90;;;;;;5013000;28;20033;-80
2021/11/07 01:57:26;;;;;;;22.70;18.52;;;10.20;99.90;;;;;;5017539;28;20037;-80
2021/11/07 01:59:59;;;;;;;30.10;24.15;;;10.10;99.90;;;;;;4990381;28;20492;-81
2021/11/07 02:02:40;;;;;;;26.58;22.75;;;10.20;99.90;;;;;;5004625;28;20053;-82
2021/11/07 02:05:10;;;;;;;34.72;27.85;;;10.20;99.90;;;;;;4997991;28;20046;-82
2021/11/07 02:08:34;;;;;;;21.75;19.65;;;10.20;99.90;;;;;;5014774;28;20046;-81
2021/11/07 02:12:00;;;;;;;26.15;21.83;;;10.20;99.90;;;;;;5021435;28;20030;-81
2021/11/07 02:15:19;;;;;;;22.55;20.33;;;10.20;99.90;;;;;;5013627;28;20045;-81
2021/11/07 02:17:59;;;;;;;23.88;21.48;;;10.20;99.90;;;;;;4999561;28;20045;-81
2021/11/07 02:20:40;;;;;;;25.65;22.77;;;10.30;99.90;;;;;;4997677;28;20034;-81
2021/11/07 02:23:18;;;;;;;25.10;21.05;;;10.30;99.90;;;;;;4966568;28;20484;-81
2021/11/07 02:26:33;;;;;;;;;;;;;;;;;;;;;
2021/11/07 02:29:31;;;;;;;24.48;20.70;;;10.30;99.90;;;;;;5015216;28;20058;-81
2021/11/07 02:31:58;;;;;;;28.90;25.13;;;10.30;99.90;;;;;;4990562;28;20041;-81
2021/11/07 02:34:29;;;;;;;25.23;22.63;;;10.30;99.90;;;;;;5007071;28;20477;-81
2021/11/07 02:36:59;;;;;;;27.50;24.65;;;10.30;99.90;;;;;;5032280;28;20030;-81
2021/11/07 02:39:28;;;;;;;23.77;21.45;;;10.30;99.90;;;;;;5015413;28;20049;-81
2021/11/07 02:41:59;;;;;;;25.77;23.02;;;10.30;99.90;;;;;;5014853;28;20483;-82
2021/11/07 02:44:45;;;;;;;29.40;24.45;;;10.40;99.90;;;;;;5015996;28;20500;-81
2021/11/07 02:47:17;;;;;;;29.20;24.90;;;10.40;99.90;;;;;;5013660;28;20488;-81
2021/11/07 02:49:47;;;;;;;28.63;25.42;;;10.40;99.90;;;;;;4999072;28;20041;-81
2021/11/07 02:52:15;;;;;;;29.38;24.60;;;10.40;99.90;;;;;;5000021;28;20384;-83
2021/11/07 03:01:26;;;;;;;26.33;23.35;;;10.50;99.90;;;;;;5011920;28;20520;-82
2021/11/07 03:04:55;;;;;;;27.50;23.33;;;10.50;99.90;;;;;;4984393;28;20519;-82
2021/11/07 03:55:25;;;;;;;36.40;24.73;;;10.70;99.90;;;;;;4970254;28;20062;-84
2021/11/07 03:58:29;;;;;;;36.00;25.13;;;10.80;99.90;;;;;;4981446;28;20477;-82
2021/11/07 04:01:06;;;;;;;35.83;18.80;;;10.80;99.90;;;;;;5000855;28;20049;-81
2021/11/07 04:03:33;;;;;;;23.73;15.07;;;10.80;99.90;;;;;;5013137;28;20507;-82
2021/11/07 04:06:45;;;;;;;;;;;;;;;;;;;;;
2021/11/07 04:10:26;;;;;;;17.67;11.60;;;10.70;99.90;;;;;;5027859;28;20473;-82
2021/11/07 04:12:58;;;;;;;20.92;10.35;;;10.70;99.90;;;;;;5017955;28;20396;-81
2021/11/07 04:15:29;;;;;;;25.98;11.98;;;10.70;99.90;;;;;;5029776;28;20037;-82
2021/11/07 04:18:07;;;;;;;21.25;9.75;;;10.70;99.90;;;;;;5031782;28;20045;-83
2021/11/07 04:34:24;;;;;;;12.65;4.95;;;10.60;99.90;;;;;;4906421;29;20051;-82
2021/11/07 05:00:27;;;;;;;20.95;3.22;;;10.30;99.90;;;;;;4787688;29;20096;-81
2021/11/07 05:04:57;;;;;;;;;;;;;;;;;;;;;
2021/11/07 05:09:21;;;;;;;19.10;3.47;;;10.20;99.90;;;;;;4742155;30;20072;-82
2021/11/07 05:13:18;;;;;;;;;;;;;;;;;;;;;
2021/11/07 05:21:20;;;;;;;15.43;2.92;;;10.10;99.90;;;;;;4834066;29;20561;-81
2021/11/07 05:55:55;;;;;;;16.92;2.05;;;9.80;99.90;;;;;;4940261;28;20051;-81
2021/11/07 05:58:25;;;;;;;24.50;3.60;;;9.80;99.90;;;;;;4909337;29;20146;-80
2021/11/07 06:00:52;;;;;;;14.40;2.20;;;9.70;99.90;;;;;;4929333;28;20042;-80
2021/11/07 06:03:20;;;;;;;18.27;2.25;;;9.70;99.90;;;;;;4965515;28;20061;-81
2021/11/07 06:05:47;;;;;;;13.82;2.33;;;9.70;99.90;;;;;;4974844;28;20042;-80
2021/11/07 06:08:14;;;;;;;14.60;3.03;;;9.60;99.90;;;;;;4963610;28;20047;-81
2021/11/07 06:10:40;;;;;;;17.20;2.90;;;9.60;99.90;;;;;;4982630;28;20042;-80
2021/11/07 06:13:07;;;;;;;20.23;3.35;;;9.60;99.90;;;;;;5012110;28;20048;-80
2021/11/07 06:15:33;;;;;;;24.20;3.67;;;9.60;99.90;;;;;;4992855;28;20365;-80
2021/11/07 06:18:00;;;;;;;18.80;2.40;;;9.50;99.90;;;;;;4976115;28;20489;-80
2021/11/07 06:20:26;;;;;;;14.50;2.90;;;9.50;99.90;;;;;;4966728;28;20061;-81
2021/11/07 06:22:53;;;;;;;21.23;2.88;;;9.40;99.90;;;;;;4975593;28;20049;-81
2021/11/07 06:25:19;;;;;;;22.08;2.88;;;9.40;99.90;;;;;;4993975;28;20042;-81
2021/11/07 06:27:46;;;;;;;16.20;2.63;;;9.30;99.90;;;;;;4998093;28;20030;-81
2021/11/07 06:30:12;;;;;;;13.07;2.20;;;9.20;99.90;;;;;;5009953;28;20056;-81
2021/11/07 06:32:39;;;;;;;18.35;2.58;;;9.10;99.90;;;;;;5069394;28;20040;-80
2021/11/07 06:35:08;;;;;;;17.73;3.10;;;9.00;99.90;;;;;;5028489;28;20033;-81
2021/11/07 06:37:35;;;;;;;20.17;4.18;;;8.90;99.90;;;;;;5062754;28;20371;-80
2021/11/07 06:40:02;;;;;;;18.08;2.63;;;8.90;99.90;;;;;;5058716;28;20032;-80
2021/11/07 06:42:28;;;;;;;15.27;2.20;;;8.80;99.90;;;;;;5028572;28;20040;-80
2021/11/07 06:44:55;;;;;;;22.35;3.55;;;8.80;99.90;;;;;;5057804;28;20391;-82
2021/11/07 06:47:22;;;;;;;17.70;2.88;;;8.70;99.90;;;;;;5035838;28;20044;-79
2021/11/07 06:49:49;;;;;;;18.23;3.33;;;8.70;99.90;;;;;;5051947;28;20715;-81
2021/11/07 06:52:18;;;;;;;18.20;2.70;;;8.60;99.90;;;;;;5027678;28;20377;-81
2021/11/07 06:55:06;;;;;;;19.27;2.60;;;8.60;99.90;;;;;;5046908;28;20475;-79
2021/11/07 07:01:27;;;;;;;19.45;1.92;;;8.50;99.90;;;;;;5003929;28;20053;-78
2021/11/07 07:04:30;;;;;;;21.85;2.92;;;8.50;99.90;;;;;;4997394;28;20061;-80
2021/11/07 07:07:22;;;;;;;17.50;2.40;;;8.40;99.90;;;;;;4970686;28;20511;-81
2021/11/07 07:10:35;;;;;;;16.40;1.80;;;8.40;99.90;;;;;;4989432;28;20045;-80
2021/11/07 07:37:22;;;;;;;16.98;2.65;;;8.40;99.90;;;;;;5014953;28;20040;-80
2021/11/07 07:48:22;;;;;;;16.83;3.05;;;8.70;99.90;;;;;;4921666;29;20048;-81
2021/11/07 07:51:01;;;;;;;9.98;2.58;;;8.70;99.90;;;;;;4888993;28;20532;-81
2021/11/07 07:54:12;;;;;;;;;;;;;;;;;;;;;
2021/11/07 07:58:08;;;;;;;11.18;1.50;;;8.70;99.90;;;;;;4978605;28;20513;-80
2021/11/07 08:01:46;;;;;;;16.58;2.92;;;8.60;99.90;;;;;;5003359;28;20045;-81
2021/11/07 08:04:54;;;;;;;18.80;2.47;;;8.70;99.90;;;;;;4982178;28;20045;-82
2021/11/07 08:07:38;;;;;;;17.83;2.55;;;8.70;99.90;;;;;;4936930;29;20051;-82
2021/11/07 08:11:42;;;;;;;;;;;;;;;;;;;;;
2021/11/07 08:14:32;;;;;;;20.00;2.60;;;8.80;99.90;;;;;;4913470;29;20077;-81
2021/11/07 08:17:53;;;;;;;18.83;2.25;;;8.90;99.90;;;;;;4923096;28;20050;-81
2021/11/07 08:29:29;;;;;;;21.95;3.42;;;9.60;99.90;;;;;;4959514;28;20047;-82
2021/11/07 08:33:07;;;;;;;;;;;;;;;;;;;;;
2021/11/07 08:36:03;;;;;;;13.95;1.48;;;9.50;99.90;;;;;;4933708;28;20041;-83
2021/11/07 08:38:55;;;;;;;14.98;1.60;;;9.40;99.90;;;;;;4954272;28;20518;-82
2021/11/07 08:41:46;;;;;;;15.95;1.70;;;9.30;99.90;;;;;;5024413;28;20045;-82
2021/11/07 09:09:17;;;;;;;13.70;2.80;;;9.40;99.90;;;;;;4967827;28;20050;-82
2021/11/07 09:12:18;;;;;;;16.42;1.70;;;9.50;99.90;;;;;;4960655;28;20046;-82
2021/11/07 09:15:39;;;;;;;;;;;;;;;;;;;;;
2021/11/07 09:18:26;;;;;;;19.45;3.17;;;10.00;99.90;;;;;;4926194;28;20043;-82
2021/11/07 09:23:58;;;;;;;;;;;10.50;99.90;;;;;;4943541;28;20565;-82
2021/11/07 09:26:43;;;;;;;20.80;2.40;;;10.50;99.90;;;;;;4936776;28;20313;-82
2021/11/07 09:29:24;;;;;;;19.00;2.67;;;10.40;99.90;;;;;;4931936;28;20541;-83
2021/11/07 09:36:14;;;;;;;16.65;2.13;;;10.30;99.90;;;;;;4899630;28;20039;-82
2021/11/07 09:50:34;;;;;;;19.27;2.50;;;10.80;99.90;;;;;;4977095;28;20038;-82
2021/11/07 09:53:02;;;;;;;19.17;2.70;;;11.00;99.90;;;;;;4952730;28;20042;-83
2021/11/07 09:55:31;;;;;;;24.02;4.78;;;11.30;99.90;;;;;;4947254;28;20054;-81
2021/11/07 09:58:01;;;;;;;18.88;2.67;;;11.50;99.90;;;;;;4992120;28;20038;-82
2021/11/07 10:00:32;;;;;;;21.05;3.15;;;11.50;99.90;;;;;;4993912;28;20041;-81
2021/11/07 10:03:02;;;;;;;21.77;3.58;;;11.40;99.90;;;;;;4993208;28;20061;-81
2021/11/07 10:05:31;;;;;;;17.88;3.28;;;11.40;99.90;;;;;;4993283;28;20034;-82
2021/11/07 10:08:40;;;;;;;20.27;2.95;;;11.30;99.90;;;;;;4973162;28;20042;-82
2021/11/07 10:11:08;;;;;;;16.65;2.78;;;11.30;99.90;;;;;;4989178;28;20056;-81
2021/11/07 10:17:43;;;;;;;16.83;3.28;;;11.80;99.90;;;;;;5043885;28;20044;-82
2021/11/07 10:21:58;;;;;;;16.55;1.88;;;12.40;99.90;;;;;;5052192;28;20408;-82
2021/11/07 10:24:45;;;;;;;16.35;2.38;;;13.10;99.90;;;;;;5037241;28;20039;-81
2021/11/07 10:27:18;;;;;;;14.32;2.05;;;13.10;99.90;;;;;;5017809;28;20041;-82
2021/11/07 10:30:43;;;;;;;;;;;;;;;;;;;;;
2021/11/07 10:53:13;;;;;;;12.52;1.55;;;13.40;99.90;;;;;;5065268;28;20025;-81
2021/11/07 10:55:43;;;;;;;16.30;2.72;;;13.10;99.90;;;;;;5052256;28;20456;-79
2021/11/07 10:58:10;;;;;;;17.73;2.00;;;12.70;99.90;;;;;;5043427;28;20029;-80
2021/11/07 11:00:46;;;;;;;17.45;2.05;;;12.40;99.90;;;;;;5009688;28;20452;-79
2021/11/07 11:03:16;;;;;;;15.48;2.17;;;12.20;99.90;;;;;;5038929;28;20471;-80
2021/11/07 11:05:52;;;;;;;12.77;1.75;;;12.00;99.90;;;;;;5050888;28;20036;-81
2021/11/07 11:08:27;;;;;;;12.25;1.70;;;11.90;99.90;;;;;;5033606;28;20479;-81
2021/11/07 11:14:02;;;;;;;14.48;2.63;;;11.80;99.90;;;;;;5050437;28;20036;-82
2021/11/07 11:30:14;;;;;;;17.15;2.08;;;12.00;99.90;;;;;;5035516;28;20045;-80
2021/11/07 11:40:29;;;;;;;13.77;2.05;;;12.00;99.90;;;;;;5032410;28;20044;-80
2021/11/07 11:43:09;;;;;;;12.38;2.38;;;11.90;99.90;;;;;;5034850;28;20041;-79
2021/11/07 11:45:40;;;;;;;12.73;2.50;;;11.80;99.90;;;;;;5048412;28;20037;-82
2021/11/07 11:54:15;;;;;;;14.35;1.92;;;11.60;99.90;;;;;;5031083;28;20063;-83
2021/11/07 11:57:21;;;;;;;19.25;2.38;;;11.60;99.90;;;;;;5017592;28;20047;-80
2021/11/07 12:02:28;;;;;;;9.40;1.50;;;11.50;99.90;;;;;;5052770;28;20383;-82
2021/11/07 12:05:21;;;;;;;12.18;1.65;;;11.60;99.90;;;;;;5021383;28;20035;-81
2021/11/07 12:08:07;;;;;;;9.48;1.75;;;11.70;99.90;;;;;;5063141;28;20287;-83
2021/11/07 12:10:41;;;;;;;;;;;11.70;99.90;;;;;;5059887;28;20053;-81
2021/11/07 12:13:33;;;;;;;11.07;1.42;;;11.70;99.90;;;;;;5046349;28;19933;-84
2021/11/07 12:16:20;;;;;;;9.18;1.45;;;11.60;99.90;;;;;;5015130;28;20045;-77
2021/11/07 12:19:11;;;;;;;;;;;11.40;99.90;;;;;;5037780;28;20450;-81
2021/11/07 12:21:54;;;;;;;11.25;1.35;;;11.40;99.90;;;;;;4977797;28;19910;-85
2021/11/07 12:24:27;;;;;;;9.85;1.08;;;11.30;99.90;;;;;;4991361;28;20049;-86
2021/11/07 12:27:30;;;;;;;7.10;1.27;;;11.10;99.90;;;;;;4957547;28;20081;-82
2021/11/07 12:30:00;;;;;;;;;;;11.10;99.90;;;;;;4989311;28;20054;-84
2021/11/07 12:32:38;;;;;;;14.32;1.77;;;11.10;99.90;;;;;;4962902;28;19910;-82
2021/11/07 12:35:19;;;;;;;12.25;1.65;;;11.10;99.90;;;;;;4929180;28;20078;-81
2021/11/07 12:41:14;;;;;;;10.05;1.50;;;10.90;99.90;;;;;;4972585;28;20079;-82
2021/11/07 12:43:51;;;;;;;12.23;1.70;;;10.90;99.90;;;;;;4929034;28;20046;-84
2021/11/07 12:49:01;;;;;;;10.82;2.05;;;11.10;99.90;;;;;;4953420;28;20046;-80
2021/11/07 12:51:39;;;;;;;15.52;1.80;;;11.20;99.90;;;;;;4955519;28;20031;-82
2021/11/07 12:54:29;;;;;;;16.20;1.95;;;11.20;99.90;;;;;;4982381;28;20030;-82
2021/11/07 12:56:59;;;;;;;13.23;1.73;;;11.20;99.90;;;;;;4972835;28;20046;-82
2021/11/07 12:59:36;;;;;;;13.32;1.65;;;11.30;99.90;;;;;;4983539;28;20528;-83
2021/11/07 13:02:06;;;;;;;17.88;2.17;;;11.30;99.90;;;;;;4969543;28;20034;-81
2021/11/07 13:05:06;;;;;;;20.45;2.88;;;11.40;99.90;;;;;;5029459;28;20040;-82
2021/11/07 13:07:45;;;;;;;11.77;1.63;;;11.50;99.90;;;;;;5032359;28;20067;-85
2021/11/07 13:10:36;;;;;;;16.13;2.30;;;11.60;99.90;;;;;;5051373;28;20028;-81
2021/11/07 13:13:21;;;;;;;16.35;2.47;;;11.70;99.90;;;;;;5014940;28;20036;-80
2021/11/07 13:16:18;;;;;;;20.75;2.38;;;11.80;99.90;;;;;;5039941;28;20024;-81
2021/11/07 13:21:57;;;;;;;22.42;3.28;;;11.70;99.90;;;;;;5020320;28;20064;-86
2021/11/07 13:30:02;;;;;;;19.63;3.42;;;11.60;99.90;;;;;;5021327;28;20057;-85
2021/11/07 13:35:11;;;;;;;24.80;2.90;;;11.50;99.90;;;;;;5036046;28;20040;-89
2021/11/07 13:37:54;;;;;;;17.88;2.67;;;11.40;99.90;;;;;;5034112;28;20033;-90
2021/11/07 13:40:29;;;;;;;;;;;11.10;99.90;;;;;;5000078;28;20033;-84
2021/11/07 13:43:08;;;;;;;13.55;2.45;;;10.80;99.90;;;;;;5039802;28;19916;-90
2021/11/07 13:45:41;;;;;;;21.75;4.50;;;10.60;99.90;;;;;;5011262;28;20036;-83
2021/11/07 13:48:17;;;;;;;14.57;3.25;;;10.40;99.90;;;;;;5002715;28;20030;-82
2021/11/07 13:50:44;;;;;;;22.75;3.65;;;10.30;99.90;;;;;;5052250;28;20055;-82
2021/11/07 13:53:38;;;;;;;13.23;2.83;;;10.20;99.90;;;;;;5033296;28;20030;-83
2021/11/07 13:56:07;;;;;;;19.88;3.17;;;10.20;99.90;;;;;;5034562;28;20049;-83
2021/11/07 13:58:37;;;;;;;22.65;3.30;;;10.20;99.90;;;;;;5029509;28;20032;-84
2021/11/07 14:01:13;;;;;;;15.07;2.35;;;10.20;99.90;;;;;;5010355;28;20036;-84
2021/11/07 14:03:43;;;;;;;15.68;3.13;;;10.20;99.90;;;;;;5021649;28;20040;-79
2021/11/07 14:06:13;;;;;;;22.55;2.97;;;10.20;99.90;;;;;;5020076;28;20037;-81
2021/11/07 14:08:48;;;;;;;21.70;2.67;;;10.20;99.90;;;;;;5010683;28;20059;-85
2021/11/07 14:11:18;;;;;;;20.58;2.70;;;10.10;99.90;;;;;;5047504;28;20036;-80
2021/11/07 14:13:48;;;;;;;19.75;3.50;;;10.00;99.90;;;;;;5047581;28;20036;-80
2021/11/07 14:16:27;;;;;;;12.10;2.83;;;10.00;99.90;;;;;;5067895;28;20349;-82
2021/11/07 14:18:54;;;;;;;12.80;1.90;;;9.80;99.90;;;;;;5069759;28;20051;-82
2021/11/07 14:24:41;;;;;;;16.50;2.67;;;9.50;99.90;;;;;;5057162;28;20474;-89
2021/11/07 14:27:48;;;;;;;14.13;2.13;;;9.40;99.90;;;;;;5037959;28;20071;-86
2021/11/07 14:30:20;;;;;;;12.00;1.40;;;9.20;99.90;;;;;;5057129;28;20043;-86
2021/11/07 14:33:00;;;;;;;14.35;1.48;;;9.10;99.90;;;;;;5012129;28;20037;-85
2021/11/07 14:36:21;;;;;;;9.00;1.65;;;9.10;99.90;;;;;;5038181;28;20033;-85
2021/11/07 14:41:56;;;;;;;12.68;1.67;;;9.00;99.90;;;;;;5059258;28;20032;-85
2021/11/07 14:44:47;;;;;;;15.40;1.50;;;9.00;99.90;;;;;;5061602;28;20032;-85
2021/11/07 14:47:35;;;;;;;13.85;1.73;;;9.00;99.90;;;;;;5052550;28;20036;-84
2021/11/07 14:53:36;;;;;;;12.07;1.50;;;9.00;99.90;;;;;;5007498;28;20040;-85
2021/11/07 14:56:20;;;;;;;18.48;2.35;;;9.00;99.90;;;;;;5005394;28;20036;-82
2021/11/07 15:05:50;;;;;;;9.77;1.73;;;9.20;99.90;;;;;;5051328;28;20032;-83
2021/11/07 15:08:33;;;;;;;;;;;9.30;99.90;;;;;;5049486;28;20028;-82
2021/11/07 15:20:56;;;;;;;17.08;2.17;;;9.40;99.90;;;;;;5051863;28;20516;-82
2021/11/07 15:24:09;;;;;;;15.77;1.85;;;9.40;99.90;;;;;;5056422;28;20028;-83
2021/11/07 15:27:02;;;;;;;19.85;1.92;;;9.40;99.90;;;;;;5051484;28;20477;-83
2021/11/07 15:29:47;;;;;;;14.82;2.03;;;9.30;99.90;;;;;;5034431;28;20510;-87
2021/11/07 15:32:56;;;;;;;20.67;2.30;;;9.30;99.90;;;;;;5018137;28;20041;-83
2021/11/07 15:35:52;;;;;;;14.82;2.22;;;9.20;99.90;;;;;;5051760;28;20045;-82
2021/11/07 15:39:33;;;;;;;;;;;;;;;;;;;;;
2021/11/07 15:42:37;;;;;;;10.45;1.55;;;9.10;99.90;;;;;;4999808;28;20044;-82
2021/11/07 15:45:51;;;;;;;17.10;1.92;;;9.10;99.90;;;;;;5023677;28;20044;-83
2021/11/07 15:49:38;;;;;;;17.30;2.22;;;9.10;99.90;;;;;;5040720;28;20035;-87
2021/11/07 16:04:24;;;;;;;;;;;;;;;;;;;;;
2021/11/07 16:11:03;;;;;;;10.50;2.15;;;8.40;99.90;;;;;;4990827;28;20479;-82
2021/11/07 16:17:00;;;;;;;11.10;2.85;;;8.30;99.90;;;;;;5042609;28;20687;-83
2021/11/07 16:19:31;;;;;;;13.07;2.95;;;8.20;99.90;;;;;;5018283;28;20041;-83
2021/11/07 16:22:26;;;;;;;12.52;3.25;;;8.10;99.90;;;;;;5030475;28;20573;-82
2021/11/07 16:24:54;;;;;;;11.75;1.75;;;8.00;99.90;;;;;;5001968;28;20035;-83
2021/11/07 16:27:22;;;;;;;8.60;1.70;;;8.00;99.90;;;;;;5022791;28;20033;-84
2021/11/07 16:29:52;;;;;;;9.93;1.20;;;7.90;99.90;;;;;;5031176;28;20041;-82
2021/11/07 16:32:46;;;;;;;9.98;1.02;;;7.90;99.90;;;;;;5009379;28;20036;-81
2021/11/07 16:35:12;;;;;;;10.02;1.52;;;7.80;99.90;;;;;;5030602;28;20075;-80
2021/11/07 16:37:45;;;;;;;15.02;2.22;;;7.80;99.90;;;;;;5045515;28;20037;-79
2021/11/07 16:42:49;;;;;;;17.08;5.47;;;7.70;99.90;;;;;;5046951;28;19920;-84
2021/11/07 16:45:17;;;;;;;14.75;3.92;;;7.70;99.90;;;;;;5011101;28;20173;-84
2021/11/07 16:47:48;;;;;;;11.27;3.30;;;7.70;99.90;;;;;;5047846;28;20048;-82
2021/11/07 16:50:24;;;;;;;14.18;3.17;;;7.70;99.90;;;;;;5036157;28;20040;-83
2021/11/07 16:52:57;;;;;;;11.27;3.22;;;7.70;99.90;;;;;;5038941;28;20476;-85
2021/11/07 16:56:07;;;;;;;14.73;4.85;;;7.70;99.90;;;;;;5031779;28;20044;-84
2021/11/07 17:01:26;;;;;;;16.50;5.30;;;7.80;99.90;;;;;;5052631;28;20036;-81
2021/11/07 17:04:21;;;;;;;23.58;9.23;;;7.80;99.90;;;;;;5052027;28;20047;-80
2021/11/07 17:06:56;;;;;;;19.05;8.48;;;7.80;99.90;;;;;;5049614;28;20055;-83
2021/11/07 17:09:44;;;;;;;21.77;6.97;;;7.80;99.90;;;;;;5051534;28;20507;-83
2021/11/07 17:12:16;;;;;;;17.27;4.45;;;7.90;99.90;;;;;;5051663;28;20072;-82
2021/11/07 17:14:56;;;;;;;15.10;3.38;;;8.00;99.90;;;;;;5031883;28;20040;-82
2021/11/07 17:17:30;;;;;;;15.60;3.20;;;8.10;99.90;;;;;;5047959;28;20040;-80
2021/11/07 17:31:22;;;;;;;23.17;3.72;;;8.20;99.90;;;;;;5049054;28;20056;-85
2021/11/07 17:36:28;;;;;;;14.43;2.25;;;8.10;99.90;;;;;;5044341;28;20029;-84
2021/11/07 17:39:06;;;;;;;18.50;3.03;;;8.10;99.90;;;;;;5016012;28;20032;-83
2021/11/07 17:44:59;;;;;;;13.43;2.10;;;8.00;99.90;;;;;;5019569;28;20049;-81
2021/11/07 17:56:00;;;;;;;16.40;3.67;;;7.70;99.90;;;;;;5037739;28;20056;-79
2021/11/07 17:59:26;;;;;;;18.98;3.17;;;7.60;99.90;;;;;;5001727;28;20471;-82
2021/11/07 18:02:52;;;;;;;;;;;;;;;;;;;;;
2021/11/07 18:05:35;;;;;;;11.27;2.63;;;7.70;99.90;;;;;;4936603;28;20525;-79
2021/11/07 18:08:14;;;;;;;18.95;3.60;;;7.80;99.90;;;;;;4951351;28;20054;-83
2021/11/07 18:10:49;;;;;;;21.10;2.92;;;7.80;99.90;;;;;;4993584;28;20051;-80
2021/11/07 18:13:19;;;;;;;17.27;4.32;;;7.80;99.90;;;;;;5046424;28;20044;-82
2021/11/07 18:15:46;;;;;;;16.05;3.90;;;7.90;99.90;;;;;;5036089;28;20033;-80
2021/11/07 18:18:15;;;;;;;21.75;4.72;;;7.90;99.90;;;;;;5027614;28;20040;-82
2021/11/07 18:20:42;;;;;;;11.90;3.55;;;7.90;99.90;;;;;;4997442;28;20052;-83
2021/11/07 18:23:14;;;;;;;15.82;2.90;;;8.00;99.90;;;;;;5037678;28;20041;-83
2021/11/07 18:28:17;;;;;;;16.73;2.78;;;7.90;99.90;;;;;;5020525;28;20045;-88
2021/11/07 18:30:45;;;;;;;16.02;3.53;;;7.80;99.90;;;;;;5049115;28;20052;-88
2021/11/07 18:33:12;;;;;;;12.73;3.72;;;7.70;99.90;;;;;;5001836;28;20060;-87
2021/11/07 18:35:42;;;;;;;11.43;2.60;;;7.60;99.90;;;;;;5027599;28;20033;-82
2021/11/07 18:38:43;;;;;;;13.65;3.40;;;7.60;99.90;;;;;;5032783;28;20043;-83
2021/11/07 18:41:40;;;;;;;7.70;3.10;;;7.40;99.90;;;;;;5028037;28;20037;-83
2021/11/07 18:44:08;;;;;;;14.02;3.33;;;7.40;99.90;;;;;;5014967;28;20052;-83
2021/11/07 18:46:34;;;;;;;14.13;3.35;;;7.30;99.90;;;;;;5026435;28;20040;-82
2021/11/07 18:50:15;;;;;;;10.82;3.40;;;7.30;99.90;;;;;;5056082;28;20662;-83
2021/11/07 18:52:44;;;;;;;15.60;4.13;;;7.20;99.90;;;;;;5060479;28;20472;-84
2021/11/07 18:55:12;;;;;;;16.38;5.15;;;7.10;99.90;;;;;;5041828;28;20028;-83
2021/11/07 18:57:43;;;;;;;11.90;3.70;;;7.10;99.90;;;;;;5036130;28;20044;-84
2021/11/07 19:00:44;;;;;;;;;;;;;;;;;;;;;
2021/11/07 19:03:23;;;;;;;12.38;3.42;;;6.90;99.90;;;;;;5051186;28;20383;-82
2021/11/07 19:06:10;;;;;;;11.48;5.20;;;6.90;99.90;;;;;;5034294;28;20496;-84
2021/11/07 19:08:39;;;;;;;16.38;5.93;;;6.80;99.90;;;;;;5007652;28;20053;-83
2021/11/07 19:11:08;;;;;;;14.30;4.65;;;6.80;99.90;;;;;;5047315;28;20392;-84
2021/11/07 19:13:35;;;;;;;12.73;5.22;;;6.70;99.90;;;;;;5052973;28;20436;-83
2021/11/07 19:16:02;;;;;;;18.90;5.93;;;6.70;99.90;;;;;;5049397;28;20033;-84
2021/11/07 19:18:31;;;;;;;14.60;5.13;;;6.60;99.90;;;;;;5011672;28;20463;-81
2021/11/07 19:20:58;;;;;;;13.27;4.28;;;6.60;99.90;;;;;;5000759;28;20051;-78
2021/11/07 19:23:24;;;;;;;16.38;4.97;;;6.60;99.90;;;;;;5025488;28;20044;-78
2021/11/07 19:25:51;;;;;;;14.95;4.07;;;6.60;99.90;;;;;;5031089;28;20025;-82
2021/11/07 19:28:24;;;;;;;14.00;5.40;;;6.50;99.90;;;;;;5033239;28;20048;-83
2021/11/07 19:30:51;;;;;;;;;;;6.50;99.90;;;;;;5041211;28;20489;-79
2021/11/07 19:33:19;;;;;;;17.70;4.68;;;6.50;99.90;;;;;;5029648;28;19913;-80
2021/11/07 19:35:48;;;;;;;17.38;5.70;;;6.40;99.90;;;;;;5029624;28;20033;-79
2021/11/07 19:38:15;;;;;;;17.35;5.25;;;6.40;99.90;;;;;;5025544;28;20483;-79
2021/11/07 19:40:44;;;;;;;16.80;4.68;;;6.40;99.90;;;;;;5024964;28;20268;-81
2021/11/07 19:43:11;;;;;;;14.18;4.30;;;6.40;99.90;;;;;;5051146;28;20033;-79
2021/11/07 19:45:41;;;;;;;15.77;5.68;;;6.40;99.90;;;;;;5030694;28;20024;-77
2021/11/07 19:48:11;;;;;;;17.35;5.85;;;6.40;99.90;;;;;;5029678;28;20044;-80
2021/11/07 19:50:38;;;;;;;14.25;5.40;;;6.40;99.90;;;;;;5028304;28;20514;-80
2021/11/07 19:53:08;;;;;;;14.82;5.10;;;6.30;99.90;;;;;;5045544;28;20499;-79
2021/11/07 19:55:36;;;;;;;15.77;4.68;;;6.30;99.90;;;;;;5026262;28;20032;-79
2021/11/07 19:58:05;;;;;;;13.38;3.45;;;6.30;99.90;;;;;;5061472;28;20025;-79
2021/11/07 20:03:32;;;;;;;22.92;8.27;;;6.30;99.90;;;;;;5045787;28;20040;-78
2021/11/07 20:11:29;;;;;;;15.23;6.20;;;6.20;99.90;;;;;;5028772;28;20049;-81
2021/11/07 20:13:56;;;;;;;15.30;5.82;;;6.20;99.90;;;;;;5019192;28;20036;-79
2021/11/07 20:16:23;;;;;;;16.50;5.93;;;6.20;99.90;;;;;;5011477;28;20052;-78
2021/11/07 20:18:50;;;;;;;17.45;5.97;;;6.20;99.90;;;;;;5019195;28;20043;-86
2021/11/07 20:21:20;;;;;;;15.57;4.80;;;6.20;99.90;;;;;;5043738;28;20524;-82
2021/11/07 20:23:52;;;;;;;10.82;4.45;;;6.20;99.90;;;;;;5051643;28;20020;-82
2021/11/07 20:26:22;;;;;;;10.90;3.92;;;6.10;99.90;;;;;;5049543;28;20055;-80
2021/11/07 20:28:52;;;;;;;18.88;4.82;;;6.10;99.90;;;;;;5042456;28;20048;-78
2021/11/07 20:31:19;;;;;;;14.40;5.38;;;6.10;99.90;;;;;;5069381;28;20323;-80
2021/11/07 20:33:47;;;;;;;16.52;5.63;;;6.10;99.90;;;;;;5002915;28;20365;-78
2021/11/07 20:36:26;;;;;;;15.50;5.15;;;6.10;99.90;;;;;;5050817;28;20392;-77
2021/11/07 20:38:55;;;;;;;17.38;5.47;;;6.10;99.90;;;;;;5036361;28;20035;-77
2021/11/07 20:41:23;;;;;;;18.90;5.30;;;6.20;99.90;;;;;;4998256;28;20028;-78
2021/11/07 20:43:53;;;;;;;15.52;5.25;;;6.20;99.90;;;;;;5047221;28;20388;-83
2021/11/07 20:51:56;;;;;;;11.88;3.95;;;6.20;99.90;;;;;;5063244;28;20476;-78
2021/11/07 20:54:35;;;;;;;20.95;5.50;;;6.10;99.90;;;;;;5017812;28;20036;-79
2021/11/07 21:02:27;;;;;;;12.20;3.47;;;6.00;99.90;;;;;;5049596;28;20049;-79
2021/11/07 21:05:13;;;;;;;12.07;3.08;;;6.00;99.90;;;;;;5018490;28;20541;-79
2021/11/07 21:08:15;;;;;;;13.02;3.38;;;6.00;99.90;;;;;;5049506;28;20055;-88
2021/11/07 21:11:04;;;;;;;15.02;3.40;;;6.00;99.90;;;;;;5049932;28;20048;-86
2021/11/07 21:13:33;;;;;;;15.52;3.75;;;5.90;99.90;;;;;;5012159;28;20033;-87
2021/11/07 21:26:39;;;;;;;18.90;3.25;;;5.90;99.90;;;;;;5065745;28;21217;-79
2021/11/07 21:29:06;;;;;;;12.35;2.78;;;5.90;99.90;;;;;;5030762;28;20040;-79
2021/11/07 21:32:04;;;;;;;23.88;4.78;;;5.90;99.90;;;;;;5046312;28;20035;-83
2021/11/07 21:34:45;;;;;;;16.20;2.90;;;5.90;99.90;;;;;;5045078;28;20047;-86
2021/11/07 21:37:38;;;;;;;16.85;3.30;;;5.90;99.90;;;;;;5045835;28;20044;-89
2021/11/07 21:40:15;;;;;;;18.65;2.90;;;6.00;99.90;;;;;;5015009;28;20029;-94
2021/11/07 21:42:56;;;;;;;16.42;3.10;;;6.00;99.90;;;;;;5013420;28;20037;-85
2021/11/07 21:45:24;;;;;;;11.98;1.83;;;6.00;99.90;;;;;;5026084;28;20055;-81
2021/11/07 21:47:51;;;;;;;13.43;1.88;;;6.10;99.90;;;;;;5009329;28;20049;-79